createdAt,value
2019-05-22T00:01:07.420Z,17.73
2019-05-22T00:03:41.565Z,11.67
2019-05-22T00:06:10.708Z,14.40
2019-05-22T00:08:40.370Z,15.40
2019-05-22T00:11:10.583Z,12.83
2019-05-22T00:13:40.478Z,14.07
2019-05-22T00:16:09.384Z,10.17
2019-05-22T00:18:39.861Z,13.40
2019-05-22T00:21:10.280Z,13.23
2019-05-22T00:23:40.521Z,15.63
2019-05-22T00:26:10.958Z,11.33
2019-05-22T00:28:40.457Z,14.13
2019-05-22T00:31:09.134Z,14.83
2019-05-22T00:33:39.089Z,14.90
2019-05-22T00:36:08.149Z,12.10
2019-05-22T00:38:37.891Z,15.23
2019-05-22T00:41:07.716Z,16.00
2019-05-22T00:43:44.544Z,13.93
2019-05-22T00:46:20.505Z,11.70
2019-05-22T00:48:49.337Z,13.87
2019-05-22T00:51:29.455Z,16.70
2019-05-22T00:54:16.310Z,11.23
2019-05-22T00:56:56.873Z,12.83
2019-05-22T00:59:29.206Z,10.17
2019-05-22T01:02:01.860Z,11.13
2019-05-22T01:04:34.848Z,11.13
2019-05-22T01:07:07.132Z,15.90
2019-05-22T01:09:39.432Z,11.77
2019-05-22T01:12:16.340Z,13.33
2019-05-22T01:15:07.879Z,10.37
2019-05-22T01:17:38.075Z,10.77
2019-05-22T01:20:09.985Z,15.43
2019-05-22T01:22:39.428Z,10.07
2019-05-22T01:25:10.095Z,12.43
2019-05-22T01:27:38.872Z,10.67
2019-05-22T01:30:11.718Z,15.43
2019-05-22T01:32:49.524Z,12.33
2019-05-22T01:35:19.932Z,13.13
2019-05-22T01:37:50.426Z,12.27
2019-05-22T01:40:32.552Z,11.20
2019-05-22T01:43:02.773Z,12.90
2019-05-22T01:45:31.408Z,10.83
2019-05-22T01:48:02.436Z,8.47
2019-05-22T01:50:43.912Z,10.30
2019-05-22T01:53:15.686Z,9.07
2019-05-22T01:55:48.113Z,9.77
2019-05-22T01:58:20.135Z,10.80
2019-05-22T02:00:49.604Z,10.37
2019-05-22T02:03:19.891Z,9.30
2019-05-22T02:05:49.546Z,6.10
2019-05-22T02:08:19.082Z,12.37
2019-05-22T02:10:49.089Z,9.80
2019-05-22T02:13:40.145Z,7.43
2019-05-22T02:16:12.609Z,9.40
2019-05-22T02:18:41.874Z,9.80
2019-05-22T02:21:11.207Z,11.40
2019-05-22T02:23:40.670Z,8.63
2019-05-22T02:26:28.622Z,7.40
2019-05-22T02:28:58.678Z,8.57
2019-05-22T02:31:28.908Z,8.30
2019-05-22T02:34:03.918Z,10.50
2019-05-22T02:36:34.710Z,7.90
2019-05-22T02:39:04.931Z,9.07
2019-05-22T02:41:42.031Z,11.13
2019-05-22T02:44:10.998Z,8.33
2019-05-22T02:46:39.597Z,11.73
2019-05-22T02:49:10.437Z,12.87
2019-05-22T02:51:40.114Z,9.80
2019-05-22T02:54:08.853Z,9.30
2019-05-22T02:56:37.897Z,10.33
2019-05-22T02:59:07.608Z,12.30
2019-05-22T03:01:37.186Z,12.07
2019-05-22T03:04:07.429Z,9.90
2019-05-22T03:06:36.582Z,9.73
2019-05-22T03:09:20.086Z,9.03
2019-05-22T03:11:54.701Z,10.57
2019-05-22T03:14:24.786Z,7.90
2019-05-22T03:16:56.312Z,11.10
2019-05-22T03:19:32.257Z,11.70
2019-05-22T03:22:00.837Z,8.50
2019-05-22T03:24:29.403Z,8.93
2019-05-22T03:26:57.971Z,9.30
2019-05-22T03:29:37.896Z,11.33
2019-05-22T03:32:07.682Z,10.40
2019-05-22T03:34:37.509Z,12.87
2019-05-22T03:37:07.053Z,9.87
2019-05-22T03:39:35.698Z,13.37
2019-05-22T03:42:05.909Z,11.50
2019-05-22T03:44:34.484Z,10.23
2019-05-22T03:47:07.089Z,9.10
2019-05-22T03:49:39.346Z,9.33
2019-05-22T03:52:09.467Z,11.03
2019-05-22T03:54:38.965Z,9.10
2019-05-22T03:57:26.850Z,9.30
2019-05-22T03:59:55.790Z,9.17
2019-05-22T04:02:24.569Z,9.70
2019-05-22T04:04:54.135Z,7.80
2019-05-22T04:07:24.502Z,10.10
2019-05-22T04:09:53.271Z,10.63
2019-05-22T04:12:24.759Z,8.93
2019-05-22T04:14:53.649Z,11.27
2019-05-22T04:17:25.710Z,10.03
2019-05-22T04:19:54.362Z,11.63
2019-05-22T04:22:22.930Z,9.97
2019-05-22T04:24:51.883Z,13.87
2019-05-22T04:27:21.473Z,9.33
2019-05-22T04:29:50.432Z,10.30
2019-05-22T04:32:28.767Z,9.40
2019-05-22T04:34:57.757Z,10.93
2019-05-22T04:37:26.607Z,10.23
2019-05-22T04:40:33.073Z,13.67
2019-05-22T04:43:01.825Z,9.87
2019-05-22T04:45:30.690Z,11.03
2019-05-22T04:48:00.502Z,9.73
2019-05-22T04:50:29.237Z,13.10
2019-05-22T04:52:58.977Z,23.33
2019-05-22T04:55:28.784Z,10.43
2019-05-22T04:58:19.517Z,8.87
2019-05-22T05:00:48.788Z,13.13
2019-05-22T05:03:17.649Z,11.17
2019-05-22T05:05:49.722Z,14.20
2019-05-22T05:08:18.284Z,11.97
2019-05-22T05:10:48.198Z,13.53
2019-05-22T05:13:17.406Z,11.30
2019-05-22T05:16:06.517Z,10.53
2019-05-22T05:18:35.400Z,9.93
2019-05-22T05:21:03.993Z,11.03
2019-05-22T05:23:32.571Z,9.27
2019-05-22T05:26:01.189Z,9.30
2019-05-22T05:28:29.755Z,9.43
2019-05-22T05:30:58.505Z,8.17
2019-05-22T05:33:27.077Z,9.10
2019-05-22T05:35:55.776Z,7.60
2019-05-22T05:38:34.773Z,8.20
2019-05-22T05:41:22.690Z,9.93
2019-05-22T05:43:51.274Z,6.70
2019-05-22T05:46:20.595Z,6.30
2019-05-22T05:48:49.156Z,6.97
2019-05-22T05:51:27.554Z,10.03
2019-05-22T05:54:01.217Z,7.93
2019-05-22T05:56:31.749Z,10.17
2019-05-22T05:59:02.475Z,7.33
2019-05-22T06:01:34.337Z,8.13
2019-05-22T06:04:03.883Z,6.17
2019-05-22T06:07:14.149Z,8.40
2019-05-22T06:09:42.718Z,9.73
2019-05-22T06:12:11.940Z,8.10
2019-05-22T06:14:41.369Z,8.33
2019-05-22T06:17:54.681Z,7.97
2019-05-22T06:20:24.889Z,9.50
2019-05-22T06:23:45.961Z,6.93
2019-05-22T06:26:40.672Z,6.20
2019-05-22T06:29:12.622Z,7.97
2019-05-22T06:31:55.609Z,9.50
2019-05-22T06:34:24.197Z,10.60
2019-05-22T06:36:53.087Z,11.00
2019-05-22T06:39:21.768Z,7.77
2019-05-22T06:41:51.009Z,8.47
2019-05-22T06:44:30.806Z,9.07
2019-05-22T06:46:59.874Z,9.93
2019-05-22T06:49:39.566Z,10.97
2019-05-22T06:52:08.177Z,9.07
2019-05-22T06:54:37.163Z,10.63
2019-05-22T06:57:08.453Z,9.37
2019-05-22T06:59:37.808Z,10.63
2019-05-22T07:02:06.905Z,12.37
2019-05-22T07:04:36.337Z,10.27
2019-05-22T07:07:06.017Z,9.73
2019-05-22T07:09:37.022Z,13.20
2019-05-22T07:12:06.097Z,10.57
2019-05-22T07:15:20.469Z,12.03
2019-05-22T07:17:52.399Z,10.73
2019-05-22T07:20:21.706Z,9.93
2019-05-22T07:22:50.468Z,11.23
2019-05-22T07:25:19.993Z,10.63
2019-05-22T07:27:49.145Z,7.93
2019-05-22T07:30:17.819Z,10.70
2019-05-22T07:32:46.847Z,20.50
2019-05-22T07:35:15.891Z,8.63
2019-05-22T07:37:46.499Z,9.80
2019-05-22T07:40:15.153Z,13.73
2019-05-22T07:42:44.193Z,8.40
2019-05-22T07:45:12.781Z,14.10
2019-05-22T07:47:42.468Z,10.70
2019-05-22T07:50:11.074Z,8.20
2019-05-22T07:52:39.921Z,8.57
2019-05-22T07:55:08.661Z,8.17
2019-05-22T07:57:37.371Z,8.90
2019-05-22T08:00:05.962Z,8.78
2019-05-22T08:02:39.516Z,7.65
2019-05-22T08:05:09.405Z,7.42
2019-05-22T08:07:39.906Z,10.15
2019-05-22T08:10:10.497Z,9.55
2019-05-22T08:12:39.094Z,12.30
2019-05-22T08:15:08.408Z,7.58
2019-05-22T08:17:37.518Z,15.43
2019-05-22T08:20:06.221Z,10.30
2019-05-22T08:22:36.145Z,11.60
2019-05-22T08:25:04.945Z,13.90
2019-05-22T08:27:33.838Z,11.57
2019-05-22T08:30:02.726Z,11.63
2019-05-22T08:32:32.226Z,9.27
2019-05-22T08:35:03.834Z,11.07
2019-05-22T08:37:33.296Z,9.10
2019-05-22T08:40:03.161Z,10.50
2019-05-22T08:42:51.089Z,9.60
2019-05-22T08:45:20.435Z,9.88
2019-05-22T08:47:49.075Z,9.30
2019-05-22T08:50:19.362Z,15.88
2019-05-22T08:52:48.229Z,14.85
2019-05-22T08:55:17.187Z,11.83
2019-05-22T08:57:46.179Z,13.70
2019-05-22T09:00:16.564Z,14.28
2019-05-22T09:02:45.569Z,15.78
2019-05-22T09:05:14.303Z,15.68
2019-05-22T09:07:43.705Z,15.80
2019-05-22T09:10:13.583Z,14.80
2019-05-22T09:12:42.193Z,13.83
2019-05-22T09:15:11.650Z,14.60
2019-05-22T09:17:40.571Z,15.63
2019-05-22T09:20:10.152Z,17.48
2019-05-22T09:22:40.970Z,15.32
2019-05-22T09:25:12.473Z,18.75
2019-05-22T09:27:41.868Z,14.58
2019-05-22T09:30:10.718Z,13.45
2019-05-22T09:32:39.328Z,13.62
2019-05-22T09:35:07.921Z,11.25
2019-05-22T09:37:36.916Z,11.05
2019-05-22T09:40:06.665Z,10.20
2019-05-22T09:42:36.270Z,7.30
2019-05-22T09:45:05.978Z,9.30
2019-05-22T09:47:34.734Z,11.95
2019-05-22T09:50:03.517Z,16.37
2019-05-22T09:52:32.290Z,11.05
2019-05-22T09:55:00.904Z,14.18
2019-05-22T09:57:29.969Z,9.93
2019-05-22T09:59:58.598Z,9.55
2019-05-22T10:02:28.097Z,10.25
2019-05-22T10:04:56.691Z,11.63
2019-05-22T10:07:25.590Z,10.28
2019-05-22T10:09:54.197Z,11.60
2019-05-22T10:12:23.276Z,14.83
2019-05-22T10:14:52.540Z,13.38
2019-05-22T10:17:21.471Z,10.15
2019-05-22T10:19:50.274Z,22.07
2019-05-22T10:22:19.266Z,9.20
2019-05-22T10:24:50.294Z,12.95
2019-05-22T10:27:18.464Z,12.05
2019-05-22T10:29:47.032Z,11.95
2019-05-22T10:32:16.020Z,13.30
2019-05-22T10:35:04.409Z,11.28
2019-05-22T10:37:33.498Z,14.23
2019-05-22T10:40:02.101Z,22.90
2019-05-22T10:42:31.636Z,27.10
2019-05-22T10:45:00.212Z,17.57
2019-05-22T10:47:29.140Z,17.55
2019-05-22T10:49:57.833Z,46.13
2019-05-22T10:52:26.828Z,25.43
2019-05-22T10:54:56.149Z,19.17
2019-05-22T10:57:25.324Z,29.75
2019-05-22T10:59:53.977Z,22.27
2019-05-22T11:02:23.454Z,17.67
2019-05-22T11:04:52.614Z,38.15
2019-05-22T11:07:21.296Z,24.37
2019-05-22T11:09:50.563Z,32.55
2019-05-22T11:12:19.147Z,19.98
2019-05-22T11:14:48.242Z,21.27
2019-05-22T11:17:17.225Z,24.43
2019-05-22T11:19:46.051Z,34.40
2019-05-22T11:22:15.092Z,23.75
2019-05-22T11:24:43.735Z,23.30
2019-05-22T11:27:13.426Z,20.02
2019-05-22T11:29:42.503Z,18.95
2019-05-22T11:32:11.904Z,29.70
2019-05-22T11:34:41.403Z,38.95
2019-05-22T11:37:29.360Z,36.25
2019-05-22T11:39:57.981Z,32.50
2019-05-22T11:42:26.557Z,36.42
2019-05-22T11:44:55.181Z,47.38
2019-05-22T11:47:23.772Z,36.08
2019-05-22T11:49:52.435Z,34.67
2019-05-22T11:52:21.275Z,32.05
2019-05-22T11:54:49.865Z,33.85
2019-05-22T11:57:18.755Z,26.27
2019-05-22T11:59:47.677Z,36.45
2019-05-22T12:02:16.742Z,43.50
2019-05-22T12:04:48.307Z,32.17
2019-05-22T12:07:15.929Z,28.20
2019-05-22T12:09:44.577Z,24.65
2019-05-22T12:12:13.162Z,21.60
2019-05-22T12:14:41.750Z,31.75
2019-05-22T12:17:10.336Z,28.50
2019-05-22T12:19:38.966Z,26.27
2019-05-22T12:22:08.123Z,28.62
2019-05-22T12:24:37.741Z,25.17
2019-05-22T12:27:06.732Z,26.02
2019-05-22T12:29:35.342Z,26.87
2019-05-22T12:32:03.937Z,31.42
2019-05-22T12:34:32.726Z,33.20
2019-05-22T12:37:02.071Z,28.98
2019-05-22T12:39:30.739Z,38.48
2019-05-22T12:42:00.176Z,23.87
2019-05-22T12:44:28.791Z,26.97
2019-05-22T12:46:57.369Z,20.50
2019-05-22T12:49:26.161Z,23.73
2019-05-22T12:51:54.742Z,23.62
2019-05-22T12:54:23.395Z,25.45
2019-05-22T12:56:52.169Z,25.23
2019-05-22T12:59:21.035Z,23.73
2019-05-22T13:01:51.821Z,20.80
2019-05-22T13:04:20.775Z,23.15
2019-05-22T13:06:49.381Z,30.08
2019-05-22T13:09:17.992Z,26.45
2019-05-22T13:11:46.908Z,26.52
2019-05-22T13:14:15.924Z,26.03
2019-05-22T13:16:48.808Z,25.57
2019-05-22T13:19:15.721Z,16.43
2019-05-22T13:21:45.268Z,16.23
2019-05-22T13:24:34.638Z,21.90
2019-05-22T13:27:04.899Z,16.57
2019-05-22T13:29:34.765Z,18.00
2019-05-22T13:32:05.018Z,23.80
2019-05-22T13:34:34.466Z,21.37
2019-05-22T13:37:03.801Z,19.37
2019-05-22T13:39:32.586Z,18.30
2019-05-22T13:42:02.214Z,10.03
2019-05-22T13:44:31.054Z,7.87
2019-05-22T13:46:59.666Z,13.20
2019-05-22T13:49:30.348Z,9.97
2019-05-22T13:51:58.922Z,13.10
2019-05-22T13:54:27.953Z,12.27
2019-05-22T13:56:56.822Z,10.07
2019-05-22T13:59:25.605Z,9.03
2019-05-22T14:01:54.249Z,7.53
2019-05-22T14:04:22.828Z,5.70
2019-05-22T14:06:51.638Z,4.43
2019-05-22T14:09:21.756Z,5.60
2019-05-22T14:11:50.894Z,8.53
2019-05-22T14:14:19.764Z,7.47
2019-05-22T14:16:49.464Z,7.17
2019-05-22T14:19:18.137Z,7.73
2019-05-22T14:21:51.392Z,4.33
2019-05-22T14:24:17.220Z,5.90
2019-05-22T14:26:45.811Z,7.13
2019-05-22T14:29:14.415Z,2.50
2019-05-22T14:31:43.000Z,4.73
2019-05-22T14:34:11.847Z,3.87
2019-05-22T14:36:40.550Z,3.33
2019-05-22T14:39:10.260Z,3.47
2019-05-22T14:41:39.041Z,3.53
2019-05-22T14:44:07.650Z,4.57
2019-05-22T14:46:36.285Z,3.63
2019-05-22T14:49:04.849Z,7.67
2019-05-22T14:51:33.904Z,4.47
2019-05-22T14:54:02.581Z,4.13
2019-05-22T14:56:31.202Z,5.17
2019-05-22T14:58:59.938Z,6.33
2019-05-22T15:01:29.017Z,6.00
2019-05-22T15:03:57.580Z,8.10
2019-05-22T15:06:26.632Z,7.13
2019-05-22T15:08:55.216Z,6.77
2019-05-22T15:11:23.952Z,4.80
2019-05-22T15:13:52.870Z,9.30
2019-05-22T15:16:21.427Z,8.13
2019-05-22T15:18:50.007Z,6.60
2019-05-22T15:21:19.452Z,7.73
2019-05-22T15:23:48.823Z,6.40
2019-05-22T15:26:17.376Z,9.03
2019-05-22T15:28:45.964Z,7.60
2019-05-22T15:31:14.525Z,9.80
2019-05-22T15:33:43.548Z,9.33
2019-05-22T15:36:32.652Z,7.03
2019-05-22T15:39:01.963Z,10.07
2019-05-22T15:41:31.356Z,7.97
2019-05-22T15:44:00.343Z,7.93
2019-05-22T15:46:28.921Z,8.23
2019-05-22T15:48:57.488Z,7.67
2019-05-22T15:51:27.973Z,11.20
2019-05-22T15:53:56.969Z,9.27
2019-05-22T15:56:26.144Z,9.20
2019-05-22T15:58:54.732Z,8.87
2019-05-22T16:01:24.960Z,12.77
2019-05-22T16:03:54.762Z,9.13
2019-05-22T16:06:25.389Z,8.47
2019-05-22T16:08:54.236Z,12.77
2019-05-22T16:11:22.816Z,9.83
2019-05-22T16:13:51.873Z,11.90
2019-05-22T16:16:22.072Z,14.33
2019-05-22T16:18:51.999Z,10.03
2019-05-22T16:21:23.348Z,10.43
2019-05-22T16:23:52.903Z,9.97
2019-05-22T16:26:22.190Z,12.37
2019-05-22T16:28:50.772Z,12.87
2019-05-22T16:31:20.479Z,10.97
2019-05-22T16:33:49.333Z,12.77
2019-05-22T16:36:20.042Z,13.83
2019-05-22T16:38:49.773Z,10.53
2019-05-22T16:41:19.004Z,13.57
2019-05-22T16:43:49.981Z,12.37
2019-05-22T16:46:18.889Z,13.17
2019-05-22T16:48:47.946Z,13.50
2019-05-22T16:51:17.196Z,11.30
2019-05-22T16:53:53.146Z,14.90
2019-05-22T16:56:41.317Z,13.03
2019-05-22T16:59:11.181Z,11.73
2019-05-22T17:01:57.583Z,11.93
2019-05-22T17:04:11.427Z,11.63
2019-05-22T17:06:41.327Z,13.70
2019-05-22T17:09:11.318Z,11.33
2019-05-22T17:11:40.569Z,13.57
2019-05-22T17:14:10.352Z,12.43
2019-05-22T17:16:41.244Z,10.03
2019-05-22T17:19:25.729Z,12.60
2019-05-22T17:21:40.978Z,10.47
2019-05-22T17:24:09.732Z,12.93
2019-05-22T17:26:38.300Z,8.90
2019-05-22T17:29:07.201Z,8.13
2019-05-22T17:31:35.963Z,9.70
2019-05-22T17:34:06.768Z,10.53
2019-05-22T17:36:35.739Z,8.13
2019-05-22T17:39:05.304Z,11.13
2019-05-22T17:41:56.090Z,7.83
2019-05-22T17:44:23.681Z,10.87
2019-05-22T17:46:52.722Z,9.37
2019-05-22T17:49:21.286Z,9.20
2019-05-22T17:51:50.190Z,9.30
2019-05-22T17:54:18.757Z,8.60
2019-05-22T17:56:47.336Z,11.37
2019-05-22T17:59:16.385Z,10.27
2019-05-22T18:01:45.025Z,10.63
2019-05-22T18:04:13.597Z,10.93
2019-05-22T18:06:42.373Z,9.07
2019-05-22T18:09:10.947Z,8.87
2019-05-22T18:11:40.216Z,7.27
2019-05-22T18:14:09.640Z,8.47
2019-05-22T18:16:38.274Z,10.83
2019-05-22T18:19:08.552Z,7.27
2019-05-22T18:21:38.389Z,6.37
2019-05-22T18:24:08.843Z,6.43
2019-05-22T18:26:38.077Z,7.90
2019-05-22T18:29:06.708Z,4.80
2019-05-22T18:31:35.769Z,5.23
2019-05-22T18:34:04.342Z,5.53
2019-05-22T18:36:32.917Z,5.30
2019-05-22T18:39:01.478Z,5.57
2019-05-22T18:41:30.040Z,7.30
2019-05-22T18:43:59.001Z,5.37
2019-05-22T18:46:27.709Z,4.60
2019-05-22T18:48:56.264Z,4.57
2019-05-22T18:51:44.323Z,5.60
2019-05-22T18:54:12.900Z,5.63
2019-05-22T18:56:41.653Z,6.63
2019-05-22T18:59:10.223Z,7.80
2019-05-22T19:01:38.779Z,5.40
2019-05-22T19:04:07.423Z,6.80
2019-05-22T19:06:36.002Z,6.53
2019-05-22T19:09:06.920Z,5.93
2019-05-22T19:11:35.758Z,7.47
2019-05-22T19:14:05.414Z,5.83
2019-05-22T19:16:34.158Z,6.73
2019-05-22T19:19:02.755Z,6.27
2019-05-22T19:21:31.381Z,6.17
2019-05-22T19:23:59.940Z,6.23
2019-05-22T19:26:28.902Z,7.97
2019-05-22T19:28:58.303Z,5.43
2019-05-22T19:31:26.922Z,4.90
2019-05-22T19:33:55.565Z,5.27
2019-05-22T19:36:24.147Z,4.70
2019-05-22T19:39:12.021Z,5.87
2019-05-22T19:41:40.608Z,7.70
2019-05-22T19:44:10.510Z,5.67
2019-05-22T19:46:39.460Z,9.13
2019-05-22T19:49:08.443Z,7.77
2019-05-22T19:51:37.628Z,6.23
2019-05-22T19:54:06.227Z,6.07
2019-05-22T19:56:34.858Z,5.50
2019-05-22T19:59:04.302Z,5.93
2019-05-22T20:01:33.241Z,6.83
2019-05-22T20:04:21.138Z,5.47
2019-05-22T20:06:50.101Z,4.80
2019-05-22T20:09:19.009Z,7.97
2019-05-22T20:11:48.018Z,7.37
2019-05-22T20:14:17.161Z,8.43
2019-05-22T20:16:46.316Z,6.73
2019-05-22T20:19:15.363Z,5.40
2019-05-22T20:21:44.133Z,4.70
2019-05-22T20:24:12.708Z,5.57
2019-05-22T20:26:41.861Z,6.47
2019-05-22T20:29:10.493Z,4.43
2019-05-22T20:31:39.056Z,5.73
2019-05-22T20:34:08.216Z,6.03
2019-05-22T20:36:37.658Z,6.23
2019-05-22T20:39:09.267Z,5.67
2019-05-22T20:41:38.210Z,7.27
2019-05-22T20:44:07.943Z,5.77
2019-05-22T20:46:37.870Z,7.83
2019-05-22T20:49:08.677Z,4.30
2019-05-22T20:51:37.547Z,7.27
2019-05-22T20:54:06.405Z,6.80
2019-05-22T20:56:37.428Z,4.63
2019-05-22T20:59:06.370Z,4.20
2019-05-22T21:01:35.012Z,7.17
2019-05-22T21:04:04.162Z,7.57
2019-05-22T21:06:33.781Z,6.70
2019-05-22T21:09:04.117Z,5.30
2019-05-22T21:11:33.373Z,6.03
2019-05-22T21:14:03.227Z,4.77
2019-05-22T21:16:31.796Z,7.80
2019-05-22T21:19:01.343Z,5.23
2019-05-22T21:21:30.364Z,5.83
2019-05-22T21:24:10.582Z,6.27
2019-05-22T21:26:30.107Z,5.43
2019-05-22T21:28:58.666Z,4.97
2019-05-22T21:31:27.609Z,7.87
2019-05-22T21:33:56.726Z,7.50
2019-05-22T21:36:26.691Z,6.23
2019-05-22T21:38:55.423Z,6.47
2019-05-22T21:41:24.172Z,6.73
2019-05-22T21:43:53.142Z,6.63
2019-05-22T21:46:22.262Z,7.60
2019-05-22T21:48:53.506Z,5.77
2019-05-22T21:51:23.377Z,8.87
2019-05-22T21:53:53.000Z,9.27
2019-05-22T21:56:22.025Z,11.80
2019-05-22T21:58:52.246Z,6.70
2019-05-22T22:01:29.955Z,8.50
2019-05-22T22:04:08.809Z,7.50
2019-05-22T22:06:37.413Z,7.43
2019-05-22T22:09:08.501Z,10.87
2019-05-22T22:11:37.382Z,9.27
2019-05-22T22:14:25.798Z,8.03
2019-05-22T22:16:55.129Z,7.60
2019-05-22T22:19:24.144Z,6.83
2019-05-22T22:21:53.529Z,8.37
2019-05-22T22:24:23.193Z,5.97
2019-05-22T22:26:51.854Z,10.47
2019-05-22T22:29:20.715Z,8.90
2019-05-22T22:31:51.019Z,8.57
2019-05-22T22:34:26.220Z,9.63
2019-05-22T22:36:56.151Z,10.70
2019-05-22T22:39:25.660Z,7.30
2019-05-22T22:41:54.736Z,8.37
2019-05-22T22:44:23.361Z,10.60
2019-05-22T22:47:01.158Z,7.47
2019-05-22T22:49:30.011Z,8.87
2019-05-22T22:51:58.722Z,9.50
2019-05-22T22:54:27.961Z,9.50
2019-05-22T22:56:57.843Z,6.90
2019-05-22T22:59:27.685Z,9.03
2019-05-22T23:01:57.279Z,12.17
2019-05-22T23:04:28.428Z,8.70
2019-05-22T23:07:01.400Z,9.43
2019-05-22T23:09:30.531Z,9.23
2019-05-22T23:14:44.530Z,11.07
2019-05-22T23:17:13.288Z,10.00
2019-05-22T23:19:44.341Z,11.43
2019-05-22T23:22:24.160Z,12.03
2019-05-22T23:24:54.221Z,9.10
2019-05-22T23:27:25.120Z,8.93
2019-05-22T23:29:54.104Z,9.27
2019-05-22T23:32:22.680Z,8.13
2019-05-22T23:34:52.173Z,8.60
2019-05-22T23:37:22.250Z,8.73
2019-05-22T23:39:53.015Z,9.50
2019-05-22T23:42:30.002Z,12.23
2019-05-22T23:44:58.966Z,13.33
2019-05-22T23:47:34.974Z,11.73
2019-05-22T23:50:03.297Z,11.57
2019-05-22T23:52:51.259Z,10.90
2019-05-22T23:55:21.005Z,11.47
2019-05-22T23:57:51.092Z,9.73
